Time;durP1;ratioP1;P1;durP2;ratioP2;P2;SDS_P1;SDS_P2;PMS_P1;PMS_P2;Temp;Humidity;BMP_temperature;BMP_pressure;BME280_temperature;BME280_humidity;BME280_pressure;Samples;Min_cycle;Max_cycle;Signal;HPM_P1;HPM_P2
2022/12/18 00:02:47;;;;;;;0.90;0.90;;;;;;;-8.57;100.00;103189.56;10475604;28;20580;-81
2022/12/18 00:07:49;;;;;;;0.08;0.08;;;;;;;-8.77;100.00;103195.19;10484841;28;20048;-81
2022/12/18 00:12:50;;;;;;;0.20;0.20;;;;;;;-8.96;100.00;103200.09;10476816;28;20050;-80
2022/12/18 00:17:52;;;;;;;2.55;2.40;;;;;;;-8.80;100.00;103190.69;10464049;28;20440;-80
2022/12/18 00:22:54;;;;;;;0.10;0.10;;;;;;;-8.83;100.00;103164.34;10488383;28;20040;-80
2022/12/18 00:27:57;;;;;;;0.32;0.32;;;;;;;-8.86;100.00;103171.41;10475112;28;20052;-80
2022/12/18 00:32:59;;;;;;;0.10;0.10;;;;;;;-8.88;100.00;103180.28;10476614;28;20040;-80
2022/12/18 00:38:06;;;;;;;0.68;0.68;;;;;;;-9.28;100.00;103171.50;10476638;28;20090;-80
2022/12/18 00:43:10;;;;;;;0.10;0.10;;;;;;;-9.25;100.00;103154.44;10471885;28;20434;-81
2022/12/18 00:48:12;;;;;;;0.10;0.10;;;;;;;-9.14;100.00;103170.03;10478952;28;20048;-81
2022/12/18 00:53:15;;;;;;;0.25;0.25;;;;;;;-9.22;100.00;103170.53;10477838;28;20049;-81
2022/12/18 00:58:20;;;;;;;0.85;0.85;;;;;;;-9.17;100.00;103168.00;10475259;28;20472;-81
2022/12/18 01:03:22;;;;;;;0.10;0.10;;;;;;;-9.10;100.00;103164.78;10477313;28;20048;-82
2022/12/18 01:08:24;;;;;;;0.10;0.10;;;;;;;-9.11;100.00;103155.47;10482159;28;20041;-81
2022/12/18 01:13:25;;;;;;;0.10;0.10;;;;;;;-9.22;100.00;103158.06;10456709;28;20052;-81
2022/12/18 01:18:27;;;;;;;0.73;0.73;;;;;;;-9.25;100.00;103156.94;10496310;28;20090;-81
2022/12/18 01:23:29;;;;;;;0.17;0.17;;;;;;;-9.45;100.00;103150.69;10544752;28;20070;-81
2022/12/18 01:28:30;;;;;;;0.00;0.00;;;;;;;-9.48;100.00;103141.19;10531832;28;20048;-81
2022/12/18 01:33:32;;;;;;;0.10;0.10;;;;;;;-9.65;100.00;103138.78;10489355;28;20402;-81
2022/12/18 01:38:34;;;;;;;0.00;0.00;;;;;;;-9.57;100.00;103148.25;10486001;28;20070;-81
2022/12/18 01:43:52;;;;;;;0.10;0.10;;;;;;;-9.13;100.00;103131.91;10492083;28;20045;-81
2022/12/18 01:49:00;;;;;;;0.10;0.10;;;;;;;-8.86;100.00;103133.94;10484028;28;20048;-81
2022/12/18 01:54:02;;;;;;;0.10;0.10;;;;;;;-8.81;100.00;103138.88;10470490;28;20114;-81
2022/12/18 01:59:09;;;;;;;0.20;0.20;;;;;;;-8.82;100.00;103134.59;10454067;28;20047;-81
2022/12/18 02:04:22;;;;;;;0.10;0.10;;;;;;;-8.78;100.00;103148.41;10483404;28;20041;-81
2022/12/18 02:09:33;;;;;;;0.10;0.10;;;;;;;-8.94;100.00;103153.75;10474352;28;20047;-81
2022/12/18 02:14:58;;;;;;;0.63;0.63;;;;;;;-9.21;100.00;103145.78;10482544;28;20496;-81
2022/12/18 02:20:06;;;;;;;0.47;0.47;;;;;;;-9.35;100.00;103142.91;10473679;28;20053;-81
2022/12/18 02:25:21;;;;;;;;;;;;;;;-9.17;100.00;103142.13;10482100;28;20045;-79
2022/12/18 02:30:23;;;;;;;0.10;0.10;;;;;;;-9.19;100.00;103141.00;10503035;28;19960;-82
2022/12/18 02:35:28;;;;;;;0.75;0.75;;;;;;;-9.13;100.00;103137.78;10496099;28;20048;-81
2022/12/18 02:40:35;;;;;;;0.20;0.20;;;;;;;-9.10;100.00;103127.31;10480874;28;20511;-81
2022/12/18 02:45:57;;;;;;;0.10;0.10;;;;;;;-9.18;100.00;103145.28;10481662;28;20036;-81
2022/12/18 02:51:14;;;;;;;0.10;0.10;;;;;;;-9.16;100.00;103141.44;10481584;28;20056;-81
2022/12/18 02:56:31;;;;;;;0.68;0.68;;;;;;;-9.37;100.00;103144.28;10481419;28;20090;-82
2022/12/18 03:01:55;;;;;;;0.55;0.55;;;;;;;-9.52;100.00;103136.44;10481161;28;20534;-81
2022/12/18 03:07:07;;;;;;;0.10;0.10;;;;;;;-9.73;100.00;103124.31;10465124;28;20503;-81
2022/12/18 03:12:24;;;;;;;1.98;1.58;;;;;;;-9.76;100.00;103108.91;10480468;28;20052;-81
2022/12/18 03:17:32;;;;;;;2.50;2.30;;;;;;;-9.59;100.00;103107.22;10475088;28;20484;-81
2022/12/18 03:22:37;;;;;;;0.30;0.30;;;;;;;-9.59;100.00;103111.28;10468591;28;20045;-81
2022/12/18 03:27:44;;;;;;;0.20;0.20;;;;;;;-9.89;100.00;103109.66;10475241;28;20067;-81
2022/12/18 03:33:25;;;;;;;0.43;0.43;;;;;;;-10.00;100.00;103107.19;10451847;28;20047;-82
2022/12/18 03:38:29;;;;;;;0.30;0.30;;;;;;;-10.02;100.00;103111.09;10381399;28;20048;-81
2022/12/18 03:43:38;;;;;;;0.10;0.10;;;;;;;-10.13;100.00;103088.66;10469847;28;20044;-81
2022/12/18 03:49:47;;;;;;;0.55;0.55;;;;;;;-9.99;100.00;103075.69;10479245;28;20055;-81
2022/12/18 03:54:53;;;;;;;0.55;0.55;;;;;;;-10.10;100.00;103080.03;10305169;28;20133;-81
2022/12/18 04:00:02;;;;;;;0.22;0.22;;;;;;;-10.21;100.00;103076.00;10470519;28;20491;-81
2022/12/18 04:05:15;;;;;;;0.10;0.10;;;;;;;-10.08;100.00;103077.75;10482247;28;20567;-81
2022/12/18 04:10:18;;;;;;;0.20;0.20;;;;;;;-10.09;100.00;103088.44;10473210;28;20040;-81
2022/12/18 04:15:21;;;;;;;0.10;0.10;;;;;;;-9.94;100.00;103075.66;10500376;28;20404;-81
2022/12/18 04:20:22;;;;;;;0.10;0.10;;;;;;;-9.98;100.00;103083.38;10522695;28;20127;-81
2022/12/18 04:25:24;;;;;;;0.10;0.10;;;;;;;-9.35;100.00;103083.94;10483171;28;20494;-81
2022/12/18 04:30:38;;;;;;;0.10;0.10;;;;;;;-9.69;100.00;103073.28;10471422;28;20527;-81
2022/12/18 04:35:40;;;;;;;0.10;0.10;;;;;;;-9.73;100.00;103059.47;10470519;28;20037;-81
2022/12/18 04:40:42;;;;;;;4.47;2.55;;;;;;;-9.84;100.00;103057.00;10488768;28;20462;-81
2022/12/18 04:45:52;;;;;;;0.00;0.00;;;;;;;-9.89;100.00;103058.84;10476043;28;20048;-81
2022/12/18 04:50:54;;;;;;;0.25;0.25;;;;;;;-9.86;100.00;103051.81;10482083;28;20036;-81
2022/12/18 04:56:08;;;;;;;1.65;1.55;;;;;;;-9.53;100.00;103061.34;10460614;28;20037;-81
2022/12/18 05:01:11;;;;;;;0.22;0.22;;;;;;;-9.65;100.00;103045.56;10477623;28;20389;-81
2022/12/18 05:06:13;;;;;;;1.52;1.42;;;;;;;-9.61;100.00;103058.69;10466443;28;20133;-80
2022/12/18 05:11:15;;;;;;;0.10;0.10;;;;;;;-9.45;100.00;103063.34;10493632;28;20044;-81
2022/12/18 05:16:17;;;;;;;0.10;0.10;;;;;;;-9.46;100.00;103064.94;10466033;28;20059;-81
2022/12/18 05:21:19;;;;;;;0.10;0.10;;;;;;;-9.48;100.00;103055.41;10498774;28;20518;-81
2022/12/18 05:26:21;;;;;;;0.20;0.20;;;;;;;-9.47;100.00;103062.22;10483014;28;20068;-81
2022/12/18 05:31:22;;;;;;;1.48;1.38;;;;;;;-9.45;100.00;103075.81;10482045;28;20044;-81
2022/12/18 05:36:24;;;;;;;0.10;0.10;;;;;;;-9.37;100.00;103079.38;10494138;28;20087;-81
2022/12/18 05:41:26;;;;;;;0.40;0.40;;;;;;;-9.31;100.00;103091.16;10501853;28;20507;-81
2022/12/18 05:46:29;;;;;;;1.85;1.75;;;;;;;-9.27;100.00;103105.84;10481836;28;20470;-81
2022/12/18 05:51:31;;;;;;;0.10;0.10;;;;;;;-9.52;100.00;103103.09;10497947;28;20542;-80
2022/12/18 05:56:34;;;;;;;0.10;0.10;;;;;;;-9.57;100.00;103115.81;10464924;28;20251;-81
2022/12/18 06:01:36;;;;;;;0.28;0.28;;;;;;;-9.66;100.00;103114.53;10479913;28;20052;-81
2022/12/18 06:06:38;;;;;;;0.00;0.00;;;;;;;-9.69;100.00;103103.22;10481470;28;20044;-81
2022/12/18 06:11:39;;;;;;;0.00;0.00;;;;;;;-10.12;100.00;103098.84;10463846;28;20450;-80
2022/12/18 06:16:41;;;;;;;1.40;1.30;;;;;;;-10.09;100.00;103089.34;10481295;28;20085;-80
2022/12/18 06:21:43;;;;;;;1.00;1.00;;;;;;;-10.11;100.00;103069.84;10495643;28;20037;-81
2022/12/18 06:26:45;;;;;;;0.10;0.10;;;;;;;-10.17;100.00;103078.97;10475958;28;20037;-79
2022/12/18 06:38:45;;;;;;;8.15;7.60;;;;;;;-10.34;100.00;103055.00;10501865;28;20036;-80
2022/12/18 06:43:47;;;;;;;0.10;0.10;;;;;;;-10.04;100.00;103053.47;10483680;28;20037;-81
2022/12/18 06:48:50;;;;;;;0.00;0.00;;;;;;;-9.99;100.00;103046.66;10484160;28;20048;-81
2022/12/18 06:53:51;;;;;;;0.10;0.10;;;;;;;-10.02;100.00;103051.22;10492690;28;20041;-81
2022/12/18 06:58:56;;;;;;;0.10;0.10;;;;;;;-10.13;100.00;103051.28;10442127;28;20053;-82
2022/12/18 07:03:58;;;;;;;0.10;0.10;;;;;;;-9.93;100.00;103036.66;10473452;28;20048;-81
2022/12/18 07:08:59;;;;;;;1.65;1.55;;;;;;;-9.94;100.00;103030.75;10508224;28;20048;-82
2022/12/18 07:14:01;;;;;;;0.35;0.35;;;;;;;-9.93;100.00;103037.56;10482494;28;20051;-81
2022/12/18 07:19:03;;;;;;;0.32;0.32;;;;;;;-9.90;100.00;103027.09;10498531;28;20496;-81
2022/12/18 07:24:05;;;;;;;0.20;0.20;;;;;;;-9.92;100.00;103029.41;10506986;28;20048;-81
2022/12/18 07:29:07;;;;;;;0.52;0.52;;;;;;;-9.78;100.00;103026.38;10524210;28;20052;-81
2022/12/18 07:34:13;;;;;;;0.10;0.10;;;;;;;-9.61;100.00;103028.75;10523328;28;20048;-81
2022/12/18 07:39:15;;;;;;;0.22;0.22;;;;;;;-9.42;100.00;103032.22;10481662;28;20052;-81
2022/12/18 07:44:17;;;;;;;0.35;0.35;;;;;;;-9.27;100.00;103025.97;10481888;28;20036;-81
2022/12/18 07:49:18;;;;;;;0.10;0.10;;;;;;;-9.21;100.00;103025.91;10481942;28;20087;-81
2022/12/18 07:54:20;;;;;;;1.25;1.25;;;;;;;-9.23;100.00;103033.91;10482155;28;20068;-81
2022/12/18 07:59:22;;;;;;;2.05;1.95;;;;;;;-9.10;100.00;103043.31;10498808;28;20479;-81
2022/12/18 08:04:24;;;;;;;2.53;2.40;;;;;;;-9.01;100.00;103025.31;10481954;28;20514;-81
2022/12/18 08:09:25;;;;;;;0.10;0.10;;;;;;;-9.04;100.00;103018.25;10464706;28;20094;-81
2022/12/18 08:14:27;;;;;;;0.10;0.10;;;;;;;-8.53;100.00;103001.84;10480627;28;20041;-81
2022/12/18 08:19:29;;;;;;;0.65;0.65;;;;;;;-8.12;100.00;102989.88;10474970;28;20114;-82
2022/12/18 08:24:37;;;;;;;0.10;0.10;;;;;;;-7.93;100.00;102981.47;10487525;28;20101;-82
2022/12/18 08:29:38;;;;;;;0.98;0.98;;;;;;;-7.68;100.00;102991.50;10502049;28;20131;-83
2022/12/18 08:34:42;;;;;;;0.10;0.10;;;;;;;-7.39;100.00;102991.97;10507582;28;20426;-82
2022/12/18 08:39:45;;;;;;;0.32;0.32;;;;;;;-7.03;100.00;102997.47;10479068;28;20492;-82
2022/12/18 08:44:47;;;;;;;0.10;0.10;;;;;;;-6.83;100.00;102996.66;10481267;28;20056;-83
2022/12/18 08:49:48;;;;;;;0.30;0.30;;;;;;;-6.65;100.00;102979.66;10491063;28;20056;-81
2022/12/18 08:54:50;;;;;;;0.22;0.22;;;;;;;-6.47;100.00;102976.09;10491011;28;20047;-81
2022/12/18 08:59:52;;;;;;;0.10;0.10;;;;;;;-6.34;100.00;102979.50;10477010;28;20389;-81
2022/12/18 09:04:53;;;;;;;0.10;0.10;;;;;;;-6.20;100.00;102986.25;10459715;28;20049;-82
2022/12/18 09:09:58;;;;;;;0.00;0.00;;;;;;;-6.04;100.00;102985.69;10477577;28;20553;-83
2022/12/18 09:14:59;;;;;;;0.10;0.10;;;;;;;-5.91;100.00;102988.97;10495334;28;20052;-82
2022/12/18 09:20:01;;;;;;;0.08;0.08;;;;;;;-5.76;100.00;102990.91;10476930;28;20063;-82
2022/12/18 09:25:08;;;;;;;0.00;0.00;;;;;;;-5.58;100.00;102981.38;10494095;28;20044;-82
2022/12/18 09:30:11;;;;;;;0.10;0.10;;;;;;;-5.40;100.00;102981.88;10493781;28;20041;-81
2022/12/18 09:35:13;;;;;;;0.63;0.22;;;;;;;-5.21;100.00;102965.81;10476443;28;20442;-82
2022/12/18 09:40:19;;;;;;;0.10;0.10;;;;;;;-5.15;100.00;102950.59;10487376;28;20094;-83
2022/12/18 09:45:21;;;;;;;0.00;0.00;;;;;;;-4.95;100.00;102953.00;10486793;28;20040;-82
2022/12/18 09:50:29;;;;;;;0.30;0.30;;;;;;;-4.84;100.00;102947.66;10500858;28;20056;-82
2022/12/18 09:55:39;;;;;;;0.10;0.10;;;;;;;-4.62;100.00;102942.69;10499382;28;20078;-82
2022/12/18 10:00:44;;;;;;;1.55;1.45;;;;;;;-4.53;100.00;102916.13;10484093;28;20063;-81
2022/12/18 10:06:22;;;;;;;0.10;0.10;;;;;;;-4.39;100.00;102916.88;10496521;28;20036;-82
2022/12/18 10:11:41;;;;;;;0.30;0.30;;;;;;;-4.27;100.00;102908.25;10481053;28;20824;-82
2022/12/18 10:17:10;;;;;;;0.00;0.00;;;;;;;-4.15;100.00;102889.56;10464035;28;20056;-82
2022/12/18 10:22:33;;;;;;;0.32;0.32;;;;;;;-4.10;100.00;102814.59;10488015;28;20412;-82
2022/12/18 10:27:35;;;;;;;0.10;0.10;;;;;;;-3.93;100.00;102808.06;10494044;28;20135;-82
2022/12/18 10:32:36;;;;;;;0.00;0.00;;;;;;;-3.89;100.00;102796.00;10497782;28;20078;-82
2022/12/18 10:38:00;;;;;;;0.00;0.00;;;;;;;-3.76;100.00;102784.81;10479172;28;20078;-82
2022/12/18 10:43:11;;;;;;;0.10;0.10;;;;;;;-3.63;100.00;102772.88;10480403;28;20118;-83
2022/12/18 10:48:31;;;;;;;0.40;0.40;;;;;;;-3.59;100.00;102754.88;10479156;28;20040;-83
2022/12/18 10:53:36;;;;;;;1.25;1.15;;;;;;;-3.58;100.00;102721.38;10480098;28;20079;-83
2022/12/18 10:58:38;;;;;;;0.00;0.00;;;;;;;-3.52;100.00;102717.03;10493602;28;20040;-83
2022/12/18 11:03:45;;;;;;;0.00;0.00;;;;;;;-3.44;100.00;102694.31;10479331;28;20044;-83
2022/12/18 11:09:02;;;;;;;0.47;0.47;;;;;;;-3.41;100.00;102679.53;10488292;28;20041;-83
2022/12/18 11:14:24;;;;;;;0.28;0.10;;;;;;;-3.28;100.00;102687.72;10473396;28;20086;-84
2022/12/18 11:19:30;;;;;;;2.63;1.17;;;;;;;-3.23;100.00;102686.59;10493108;28;20040;-83
2022/12/18 11:24:34;;;;;;;0.10;0.10;;;;;;;-3.08;100.00;102681.44;10465591;28;20400;-83
2022/12/18 11:29:39;;;;;;;0.50;0.50;;;;;;;-2.94;100.00;102688.88;10493892;28;20079;-84
2022/12/18 11:34:52;;;;;;;0.35;0.35;;;;;;;-2.93;100.00;102668.00;10462121;28;20530;-84
2022/12/18 11:40:09;;;;;;;0.10;0.10;;;;;;;-2.84;100.00;102654.59;10471105;28;20065;-84
2022/12/18 11:45:13;;;;;;;0.32;0.32;;;;;;;-2.63;100.00;102654.38;10472943;28;20135;-84
2022/12/18 11:50:23;;;;;;;0.55;0.55;;;;;;;-2.66;100.00;102649.00;10493717;28;20136;-84
2022/12/18 11:55:40;;;;;;;0.00;0.00;;;;;;;-2.61;100.00;102641.94;10478212;28;20078;-84
2022/12/18 12:00:58;;;;;;;0.05;0.05;;;;;;;-2.53;100.00;102625.09;10467486;28;20044;-84
2022/12/18 12:06:24;;;;;;;0.00;0.00;;;;;;;-2.51;100.00;102619.47;10477379;28;20518;-84
2022/12/18 12:11:52;;;;;;;0.22;0.20;;;;;;;-2.43;100.00;102615.25;10475324;28;20101;-84
2022/12/18 12:17:19;;;;;;;1.02;1.00;;;;;;;-2.40;100.00;102605.44;10451831;28;20040;-84
2022/12/18 12:22:32;;;;;;;0.00;0.00;;;;;;;-2.34;100.00;102577.44;10475446;28;20188;-83
2022/12/18 12:27:56;;;;;;;0.00;0.00;;;;;;;-2.35;100.00;102563.03;10476551;28;20388;-84
2022/12/18 12:33:08;;;;;;;0.00;0.00;;;;;;;-2.27;100.00;102560.56;10493601;28;20051;-84
2022/12/18 12:38:15;;;;;;;0.10;0.10;;;;;;;-2.31;100.00;102553.41;10498863;28;20032;-83
2022/12/18 12:43:44;;;;;;;0.10;0.10;;;;;;;-2.24;100.00;102550.78;10465690;28;20048;-84
2022/12/18 12:48:57;;;;;;;0.00;0.00;;;;;;;-2.30;100.00;102546.72;10435243;28;20450;-84
2022/12/18 12:54:02;;;;;;;0.15;0.15;;;;;;;-2.20;100.00;102552.00;10492456;28;20059;-84
2022/12/18 12:59:17;;;;;;;0.05;0.05;;;;;;;-2.19;100.00;102543.69;10475923;28;20048;-84
2022/12/18 13:04:37;;;;;;;0.25;0.25;;;;;;;-2.08;100.00;102533.06;10492145;28;20418;-84
2022/12/18 13:10:14;;;;;;;1.27;1.17;;;;;;;-2.19;100.00;102523.50;10478581;28;20048;-84
2022/12/18 13:15:29;;;;;;;0.00;0.00;;;;;;;-2.22;100.00;102519.75;10484472;28;20040;-84
2022/12/18 13:20:36;;;;;;;0.20;0.20;;;;;;;-2.26;100.00;102511.84;10483905;28;20043;-84
2022/12/18 13:25:38;;;;;;;0.45;0.45;;;;;;;-2.21;100.00;102503.88;10483000;28;20045;-84
2022/12/18 13:30:54;;;;;;;0.00;0.00;;;;;;;-2.19;100.00;102492.28;10489190;28;20080;-85
2022/12/18 13:36:12;;;;;;;0.00;0.00;;;;;;;-2.20;100.00;102482.94;10468392;28;20036;-84
2022/12/18 13:41:14;;;;;;;0.00;0.00;;;;;;;-2.22;100.00;102477.72;10482931;28;20045;-84
2022/12/18 13:46:41;;;;;;;0.00;0.00;;;;;;;-2.22;100.00;102471.78;10482452;28;20044;-84
2022/12/18 13:51:52;;;;;;;0.00;0.00;;;;;;;-2.24;100.00;102464.94;10469870;28;20052;-81
2022/12/18 13:56:54;;;;;;;0.00;0.00;;;;;;;-2.24;100.00;102459.91;10486006;28;20049;-81
2022/12/18 14:01:58;;;;;;;0.17;0.17;;;;;;;-2.19;100.00;102452.78;10485950;28;20075;-81
2022/12/18 14:07:15;;;;;;;1.75;0.88;;;;;;;-2.13;100.00;102461.00;10507296;28;20040;-82
2022/12/18 14:17:43;;;;;;;0.05;0.05;;;;;;;-2.02;100.00;102444.41;10503782;28;20510;-81
2022/12/18 14:22:53;;;;;;;0.00;0.00;;;;;;;-1.96;100.00;102439.09;10468107;28;20110;-81
2022/12/18 14:28:22;;;;;;;0.00;0.00;;;;;;;-1.90;100.00;102438.81;10485318;28;20044;-83
2022/12/18 14:33:26;;;;;;;0.00;0.00;;;;;;;-1.86;100.00;102434.22;10487335;28;20407;-82
2022/12/18 14:38:32;;;;;;;2.30;2.10;;;;;;;-1.82;100.00;102425.31;10486994;28;20044;-82
2022/12/18 14:43:36;;;;;;;0.00;0.00;;;;;;;-1.85;100.00;102414.91;10470941;28;20048;-82
2022/12/18 14:48:40;;;;;;;0.15;0.15;;;;;;;-1.89;100.00;102398.56;10486484;28;20047;-81
2022/12/18 14:53:45;;;;;;;0.25;0.25;;;;;;;-1.92;100.00;102396.63;10483949;28;20044;-81
2022/12/18 14:58:56;;;;;;;0.10;0.10;;;;;;;-1.91;100.00;102382.34;10486279;28;20041;-81
2022/12/18 15:03:59;;;;;;;0.00;0.00;;;;;;;-1.95;100.00;102373.56;10483994;28;20048;-80
2022/12/18 15:09:22;;;;;;;0.00;0.00;;;;;;;-1.96;100.00;102366.72;10482812;28;20040;-81
2022/12/18 15:14:39;;;;;;;0.00;0.00;;;;;;;-1.94;100.00;102377.88;10500941;28;20045;-81
2022/12/18 15:19:43;;;;;;;0.00;0.00;;;;;;;-1.92;100.00;102360.34;10455123;28;20047;-81
2022/12/18 15:24:49;;;;;;;0.00;0.00;;;;;;;-1.90;100.00;102368.09;10482540;28;20051;-81
2022/12/18 15:30:07;;;;;;;0.10;0.10;;;;;;;-1.90;100.00;102350.41;10467474;28;20463;-81
2022/12/18 15:35:10;;;;;;;0.35;0.35;;;;;;;-1.83;100.00;102347.75;10481960;28;20036;-81
2022/12/18 15:40:21;;;;;;;0.00;0.00;;;;;;;-1.85;100.00;102359.31;10490810;28;20044;-81
2022/12/18 15:52:25;;;;;;;0.00;0.00;;;;;;;-1.83;100.00;102317.44;10499833;28;20033;-81
2022/12/18 15:57:27;;;;;;;0.68;0.28;;;;;;;-1.90;100.00;102335.25;10480873;28;20067;-81
2022/12/18 16:02:29;;;;;;;3.55;1.30;;;;;;;-1.81;100.00;102342.09;10481959;28;20055;-81
2022/12/18 16:07:31;;;;;;;0.15;0.15;;;;;;;-1.79;100.00;102339.72;10499598;28;20044;-81
2022/12/18 16:12:33;;;;;;;0.32;0.32;;;;;;;-1.66;100.00;102344.34;10499017;28;20074;-81
2022/12/18 16:17:37;;;;;;;0.00;0.00;;;;;;;-1.70;100.00;102330.53;10498780;28;20045;-81
2022/12/18 16:22:45;;;;;;;0.10;0.10;;;;;;;-1.67;100.00;102340.91;10481856;28;20087;-81
2022/12/18 16:27:48;;;;;;;0.30;0.30;;;;;;;-1.67;100.00;102325.75;10464390;28;20494;-81
2022/12/18 16:32:55;;;;;;;0.65;0.60;;;;;;;-1.57;100.00;102326.66;10480770;28;20114;-81
2022/12/18 16:37:56;;;;;;;9.02;3.88;;;;;;;-1.58;100.00;102315.69;10484122;28;20064;-81
2022/12/18 16:42:58;;;;;;;0.70;0.70;;;;;;;-1.48;100.00;102297.25;10464565;28;20492;-81
2022/12/18 16:48:03;;;;;;;1.42;1.33;;;;;;;-1.47;100.00;102299.91;10467935;28;20503;-81
2022/12/18 16:53:04;;;;;;;0.63;0.63;;;;;;;-1.47;100.00;102291.44;10488675;28;20049;-81
2022/12/18 16:58:06;;;;;;;2.20;2.00;;;;;;;-1.49;100.00;102288.75;10489230;28;20437;-82
2022/12/18 17:03:08;;;;;;;0.13;0.13;;;;;;;-1.47;100.00;102271.22;10488352;28;20094;-81
2022/12/18 17:08:10;;;;;;;1.10;1.00;;;;;;;-1.44;100.00;102274.03;10488131;28;20046;-81
2022/12/18 17:13:12;;;;;;;0.73;0.65;;;;;;;-1.29;100.00;102249.34;10506018;28;20044;-81
2022/12/18 17:18:13;;;;;;;0.85;0.85;;;;;;;-1.20;100.00;102249.31;10476492;28;20040;-83
2022/12/18 17:23:15;;;;;;;0.80;0.80;;;;;;;-1.17;100.00;102252.16;10500829;28;20569;-83
2022/12/18 17:28:17;;;;;;;0.00;0.00;;;;;;;-1.21;100.00;102258.53;10494001;28;20080;-83
2022/12/18 17:33:19;;;;;;;0.05;0.05;;;;;;;-1.14;100.00;102253.31;10489823;28;20135;-83
2022/12/18 17:38:20;;;;;;;2.53;1.20;;;;;;;-1.17;100.00;102255.56;10517786;28;20036;-85
2022/12/18 17:43:22;;;;;;;0.10;0.10;;;;;;;-1.17;100.00;102253.03;10489776;28;20072;-83
2022/12/18 17:48:23;;;;;;;0.70;0.68;;;;;;;-1.17;100.00;102259.72;10495039;28;20064;-84
2022/12/18 17:53:25;;;;;;;0.00;0.00;;;;;;;-1.18;100.00;102256.28;10494483;28;20126;-84
2022/12/18 17:58:28;;;;;;;0.85;0.68;;;;;;;-1.24;100.00;102253.19;10488607;28;20090;-84
2022/12/18 18:03:31;;;;;;;3.65;1.75;;;;;;;-1.23;100.00;102239.81;10501408;28;20064;-84
2022/12/18 18:08:34;;;;;;;0.75;0.75;;;;;;;-1.28;100.00;102236.84;10502873;28;20078;-85
2022/12/18 18:18:58;;;;;;;0.88;0.80;;;;;;;-1.35;100.00;102244.56;10510239;28;20491;-84
2022/12/18 18:24:03;;;;;;;0.00;0.00;;;;;;;-1.31;100.00;102238.19;10488861;28;20071;-84
2022/12/18 18:29:17;;;;;;;0.98;0.65;;;;;;;-1.28;100.00;102231.78;10488912;28;20048;-82
2022/12/18 18:34:25;;;;;;;0.70;0.70;;;;;;;-1.36;100.00;102249.50;10489613;28;20057;-82
2022/12/18 18:39:29;;;;;;;0.00;0.00;;;;;;;-1.34;100.00;102251.41;10485011;28;20088;-81
2022/12/18 18:44:31;;;;;;;1.05;1.02;;;;;;;-1.36;100.00;102255.44;10474962;28;20139;-81
2022/12/18 18:49:32;;;;;;;1.05;1.02;;;;;;;-1.35;100.00;102254.69;10481430;28;20041;-81
2022/12/18 18:54:34;;;;;;;4.03;2.33;;;;;;;-1.33;100.00;102250.69;10468025;28;20056;-83
2022/12/18 19:00:01;;;;;;;0.00;0.00;;;;;;;-1.34;100.00;102260.66;10475245;28;20042;-82
2022/12/18 19:05:03;;;;;;;0.00;0.00;;;;;;;-1.34;100.00;102250.53;10477841;28;20475;-82
2022/12/18 19:10:07;;;;;;;1.65;1.55;;;;;;;-1.34;100.00;102251.41;10492771;28;20032;-82
2022/12/18 19:15:09;;;;;;;1.55;0.85;;;;;;;-1.33;100.00;102252.31;10478954;28;20052;-82
2022/12/18 19:20:14;;;;;;;1.23;1.13;;;;;;;-1.34;100.00;102240.44;10470555;28;20041;-82
2022/12/18 19:25:16;;;;;;;0.00;0.00;;;;;;;-1.37;100.00;102235.94;10485346;28;20396;-84
2022/12/18 19:30:18;;;;;;;1.25;1.05;;;;;;;-1.33;100.00;102232.97;10489679;28;20044;-81
2022/12/18 19:35:19;;;;;;;0.20;0.20;;;;;;;-1.41;100.00;102228.81;10500436;28;20041;-82
2022/12/18 19:40:21;;;;;;;0.08;0.08;;;;;;;-1.33;100.00;102232.06;10486149;28;20056;-82
2022/12/18 19:45:23;;;;;;;0.00;0.00;;;;;;;-1.36;100.00;102232.69;10472517;28;20065;-82
2022/12/18 19:50:25;;;;;;;2.28;2.15;;;;;;;-1.32;100.00;102229.72;10454321;28;20045;-83
2022/12/18 19:55:27;;;;;;;1.40;1.30;;;;;;;-1.35;100.00;102234.47;10475953;28;20048;-82
2022/12/18 20:00:29;;;;;;;0.57;0.57;;;;;;;-1.30;100.00;102233.25;10480947;28;20423;-84
2022/12/18 20:05:31;;;;;;;0.00;0.00;;;;;;;-1.29;100.00;102229.97;10477606;28;20499;-83
2022/12/18 20:10:33;;;;;;;0.00;0.00;;;;;;;-1.32;100.00;102237.28;10478356;28;20480;-84
2022/12/18 20:15:35;;;;;;;0.47;0.35;;;;;;;-1.29;100.00;102224.94;10498571;28;20040;-83
2022/12/18 20:20:45;;;;;;;;;;;;;;;-1.22;100.00;102225.50;10476881;28;20424;-83
2022/12/18 20:25:53;;;;;;;0.10;0.10;;;;;;;-1.25;100.00;102225.22;10461315;28;20367;-83
2022/12/18 20:31:03;;;;;;;0.32;0.32;;;;;;;-1.24;100.00;102239.66;10453044;28;20049;-82
2022/12/18 20:36:06;;;;;;;;;;;;;;;-1.25;100.00;102221.06;10436456;28;20480;-82
2022/12/18 20:41:15;;;;;;;0.63;0.63;;;;;;;-1.30;100.00;102213.03;10475703;28;19944;-82
2022/12/18 20:46:17;;;;;;;3.85;3.53;;;;;;;-1.25;100.00;102217.66;10479388;28;20040;-82
2022/12/18 20:51:19;;;;;;;0.88;0.88;;;;;;;-1.29;100.00;102219.88;10483810;28;20106;-82
2022/12/18 20:56:26;;;;;;;0.08;0.08;;;;;;;-1.28;100.00;102225.84;10477071;28;20041;-84
2022/12/18 21:01:29;;;;;;;0.00;0.00;;;;;;;-1.30;100.00;102233.25;10476998;28;20143;-83
2022/12/18 21:06:35;;;;;;;1.05;0.70;;;;;;;-1.39;100.00;102229.88;10475371;28;20064;-82
2022/12/18 21:17:01;;;;;;;0.00;0.00;;;;;;;-1.41;100.00;102248.13;10467072;28;20109;-84
2022/12/18 21:22:03;;;;;;;0.85;0.85;;;;;;;-1.38;100.00;102264.53;10501193;28;20040;-83
2022/12/18 21:27:05;;;;;;;0.00;0.00;;;;;;;-1.42;100.00;102280.13;10461502;28;20101;-83
2022/12/18 21:32:08;;;;;;;0.95;0.80;;;;;;;-1.43;100.00;102288.44;10479352;28;20051;-82
2022/12/18 21:37:10;;;;;;;0.30;0.30;;;;;;;-1.43;100.00;102283.41;10482353;28;20036;-82
2022/12/18 21:47:33;;;;;;;0.13;0.13;;;;;;;-1.45;100.00;102287.41;10485810;28;20037;-83
2022/12/18 21:52:34;;;;;;;1.23;0.52;;;;;;;-1.41;100.00;102284.44;10479061;28;20117;-83
2022/12/18 21:57:38;;;;;;;1.50;1.40;;;;;;;-1.48;100.00;102287.13;10490716;28;20044;-84
2022/12/18 22:02:41;;;;;;;0.03;0.03;;;;;;;-1.43;100.00;102270.75;10470029;28;20040;-83
2022/12/18 22:07:43;;;;;;;0.10;0.10;;;;;;;-1.43;100.00;102265.69;10506010;28;20048;-83
2022/12/18 22:12:46;;;;;;;0.00;0.00;;;;;;;-1.38;100.00;102264.53;10484358;28;20036;-82
2022/12/18 22:17:50;;;;;;;0.20;0.20;;;;;;;-1.44;100.00;102264.81;10468688;28;20041;-82
2022/12/18 22:23:00;;;;;;;1.75;1.65;;;;;;;-1.39;100.00;102261.81;10487168;28;20041;-83
2022/12/18 22:33:29;;;;;;;0.20;0.20;;;;;;;-1.37;100.00;102265.41;10476728;28;20485;-82
2022/12/18 22:38:31;;;;;;;0.05;0.05;;;;;;;-1.36;100.00;102255.44;10473095;28;20131;-84
2022/12/18 22:43:33;;;;;;;0.00;0.00;;;;;;;-1.30;100.00;102248.44;10483257;28;20053;-82
2022/12/18 22:48:35;;;;;;;0.00;0.00;;;;;;;-1.29;100.00;102235.03;10503534;28;20053;-82
2022/12/18 22:53:36;;;;;;;1.02;0.85;;;;;;;-1.29;100.00;102240.09;10497116;28;20373;-82
2022/12/18 22:58:46;;;;;;;0.00;0.00;;;;;;;-1.25;100.00;102232.81;10490588;28;20415;-83
2022/12/18 23:03:48;;;;;;;0.20;0.20;;;;;;;-1.20;100.00;102230.00;10480885;28;20051;-83
2022/12/18 23:08:51;;;;;;;5.68;1.95;;;;;;;-1.19;100.00;102226.69;10475843;28;20091;-82
2022/12/18 23:13:56;;;;;;;3.25;1.05;;;;;;;-1.16;100.00;102221.06;10488260;28;20098;-82
2022/12/18 23:18:59;;;;;;;0.10;0.10;;;;;;;-1.16;100.00;102205.88;10467047;28;20143;-82
2022/12/18 23:24:01;;;;;;;0.08;0.08;;;;;;;-1.11;100.00;102192.00;10466751;28;20041;-82
2022/12/18 23:29:03;;;;;;;0.00;0.00;;;;;;;-1.09;100.00;102182.94;10479606;28;20040;-81
2022/12/18 23:34:06;;;;;;;0.00;0.00;;;;;;;-1.05;100.00;102166.41;10479723;28;20082;-82
2022/12/18 23:39:10;;;;;;;0.00;0.00;;;;;;;-1.05;100.00;102159.69;10478456;28;20068;-82
2022/12/18 23:44:15;;;;;;;3.25;1.67;;;;;;;-0.99;100.00;102157.75;10480863;28;20133;-83
2022/12/18 23:49:17;;;;;;;0.00;0.00;;;;;;;-0.98;100.00;102146.00;10482031;28;20411;-83
2022/12/18 23:54:19;;;;;;;0.00;0.00;;;;;;;-0.97;100.00;102148.66;10481036;28;20052;-84